Time;durP1;ratioP1;P1;durP2;ratioP2;P2;SDS_P1;SDS_P2;PMS_P1;PMS_P2;Temp;Humidity;BMP_temperature;BMP_pressure;BME280_temperature;BME280_humidity;BME280_pressure;Samples;Min_cycle;Max_cycle;Signal;HPM_P1;HPM_P2
2024/01/25 00:01:11;;;;;;;93.00;65.80;;;3.90;99.90;;;;;;5114215;28;20020;-77
2024/01/25 00:03:37;;;;;;;91.05;65.75;;;3.90;99.90;;;;;;5095839;28;20020;-76
2024/01/25 00:06:07;;;;;;;87.72;64.88;;;3.90;99.90;;;;;;5114440;28;20024;-77
2024/01/25 00:08:36;;;;;;;90.50;64.22;;;3.90;99.90;;;;;;5114021;28;20019;-77
2024/01/25 00:11:03;;;;;;;92.18;67.95;;;3.90;99.90;;;;;;5114214;28;20050;-77
2024/01/25 00:13:29;;;;;;;91.47;65.85;;;3.90;99.90;;;;;;5112578;28;20141;-77
2024/01/25 00:15:54;;;;;;;90.25;65.43;;;3.90;99.90;;;;;;5113619;28;20106;-76
2024/01/25 00:18:20;;;;;;;92.75;68.50;;;3.90;99.90;;;;;;5114042;28;20046;-77
2024/01/25 00:20:46;;;;;;;92.32;66.47;;;3.90;99.90;;;;;;5113478;28;20479;-76
2024/01/25 00:23:12;;;;;;;96.55;69.85;;;3.80;99.90;;;;;;5113289;28;20490;-76
2024/01/25 00:25:37;;;;;;;93.40;67.60;;;3.80;99.90;;;;;;5113323;28;20019;-76
2024/01/25 00:28:03;;;;;;;94.15;67.20;;;3.80;99.90;;;;;;5113632;28;20028;-76
2024/01/25 00:30:29;;;;;;;94.50;68.55;;;3.80;99.90;;;;;;5094990;28;20497;-76
2024/01/25 00:32:57;;;;;;;91.20;67.63;;;3.70;99.90;;;;;;5113311;28;20027;-77
2024/01/25 00:35:26;;;;;;;94.10;68.43;;;3.70;99.90;;;;;;5094663;28;20024;-77
2024/01/25 00:37:52;;;;;;;96.13;68.53;;;3.80;99.90;;;;;;5094739;28;20053;-76
2024/01/25 00:40:18;;;;;;;94.32;64.43;;;3.80;99.90;;;;;;5128845;27;20044;-77
2024/01/25 00:42:52;;;;;;;93.20;65.72;;;3.80;99.90;;;;;;5113159;28;20024;-76
2024/01/25 00:45:19;;;;;;;87.07;64.22;;;3.80;99.90;;;;;;5113524;28;20111;-76
2024/01/25 00:47:45;;;;;;;88.57;64.18;;;3.80;99.90;;;;;;5093849;28;20028;-76
2024/01/25 00:50:12;;;;;;;91.93;65.30;;;3.90;99.90;;;;;;5113423;28;20023;-77
2024/01/25 00:52:39;;;;;;;88.40;63.28;;;3.90;99.90;;;;;;5129366;27;20461;-76
2024/01/25 00:55:05;;;;;;;96.18;67.25;;;3.90;99.90;;;;;;5094979;28;20367;-77
2024/01/25 00:57:31;;;;;;;93.82;63.58;;;3.80;99.90;;;;;;5113064;28;20016;-77
2024/01/25 00:59:59;;;;;;;90.78;65.05;;;3.80;99.90;;;;;;5113331;28;20053;-77
2024/01/25 01:02:30;;;;;;;90.35;66.85;;;3.80;99.90;;;;;;5113091;28;20031;-76
2024/01/25 01:04:58;;;;;;;84.80;62.72;;;3.80;99.90;;;;;;5113279;28;20486;-76
2024/01/25 01:07:24;;;;;;;87.85;62.72;;;3.80;99.90;;;;;;5113223;28;20023;-77
2024/01/25 01:09:50;;;;;;;89.43;61.50;;;3.80;99.90;;;;;;5110871;28;20490;-76
2024/01/25 01:12:16;;;;;;;85.60;64.45;;;3.80;99.90;;;;;;5111922;28;20027;-76
2024/01/25 01:14:42;;;;;;;88.55;63.75;;;3.80;99.90;;;;;;5107313;28;20070;-76
2024/01/25 01:17:08;;;;;;;88.18;63.60;;;3.80;99.90;;;;;;5112961;28;20020;-77
2024/01/25 01:19:33;;;;;;;87.20;63.65;;;3.80;99.90;;;;;;5112975;28;20103;-76
2024/01/25 01:21:59;;;;;;;89.72;62.97;;;3.80;99.90;;;;;;5113023;28;20103;-76
2024/01/25 01:24:25;;;;;;;88.05;62.35;;;3.80;99.90;;;;;;5108035;28;20475;-77
2024/01/25 01:26:51;;;;;;;85.75;63.35;;;3.80;99.90;;;;;;5118226;28;20031;-76
2024/01/25 01:29:17;;;;;;;86.13;62.25;;;3.80;99.90;;;;;;5094298;28;20058;-77
2024/01/25 01:31:43;;;;;;;86.90;61.28;;;3.80;99.90;;;;;;5094481;28;20067;-76
2024/01/25 01:34:09;;;;;;;86.45;62.42;;;3.80;99.90;;;;;;5110397;28;20024;-76
2024/01/25 01:36:34;;;;;;;83.07;61.72;;;3.80;99.90;;;;;;5112731;28;20059;-77
2024/01/25 01:39:00;;;;;;;82.43;62.00;;;3.80;99.90;;;;;;5108324;28;20063;-77
2024/01/25 01:41:26;;;;;;;89.90;62.80;;;3.80;99.90;;;;;;5112750;28;20061;-76
2024/01/25 01:43:55;;;;;;;78.72;59.15;;;3.80;99.90;;;;;;5094070;28;20024;-76
2024/01/25 01:46:28;;;;;;;81.97;59.45;;;3.80;99.90;;;;;;5094226;28;20019;-76
2024/01/25 01:48:53;;;;;;;82.05;59.75;;;3.80;99.90;;;;;;5110271;28;20024;-77
2024/01/25 01:51:19;;;;;;;84.03;61.60;;;3.80;99.90;;;;;;5112367;28;20088;-76
2024/01/25 01:53:46;;;;;;;83.03;60.90;;;3.80;99.70;;;;;;5112314;28;20514;-77
2024/01/25 01:56:12;;;;;;;86.88;61.25;;;3.80;99.90;;;;;;5103945;28;20023;-76
2024/01/25 01:58:39;;;;;;;83.72;61.65;;;3.80;99.90;;;;;;5112577;28;20027;-77
2024/01/25 02:01:05;;;;;;;88.10;60.13;;;3.70;99.90;;;;;;5112134;28;20060;-77
2024/01/25 02:03:32;;;;;;;83.95;62.50;;;3.70;99.90;;;;;;5112418;28;20031;-76
2024/01/25 02:06:02;;;;;;;86.30;61.00;;;3.70;99.90;;;;;;5111798;28;20076;-77
2024/01/25 02:08:29;;;;;;;82.10;59.70;;;3.70;99.90;;;;;;5088593;28;20104;-76
2024/01/25 02:10:55;;;;;;;81.35;59.65;;;3.70;99.90;;;;;;5110762;28;20056;-76
2024/01/25 02:13:21;;;;;;;88.32;62.13;;;3.70;99.90;;;;;;5114070;28;20144;-76
2024/01/25 02:15:47;;;;;;;82.03;59.60;;;3.70;99.90;;;;;;5116416;28;20024;-76
2024/01/25 02:18:13;;;;;;;87.40;60.08;;;3.70;99.90;;;;;;5115918;28;20011;-77
2024/01/25 02:20:38;;;;;;;81.65;60.45;;;3.70;99.90;;;;;;5131733;27;20026;-76
2024/01/25 02:23:04;;;;;;;81.32;60.67;;;3.70;99.90;;;;;;5094723;28;20027;-76
2024/01/25 02:25:30;;;;;;;87.45;62.67;;;3.80;99.90;;;;;;5115723;28;20039;-76
2024/01/25 02:27:56;;;;;;;84.40;60.88;;;3.70;99.90;;;;;;5097720;28;20027;-77
2024/01/25 02:30:21;;;;;;;82.95;60.17;;;3.70;99.90;;;;;;5129121;27;20030;-76
2024/01/25 02:32:47;;;;;;;85.13;60.17;;;3.70;99.90;;;;;;5115005;28;20032;-76
2024/01/25 02:35:13;;;;;;;81.57;60.35;;;3.70;99.90;;;;;;5114700;28;20015;-77
2024/01/25 02:37:38;;;;;;;83.18;60.35;;;3.70;99.90;;;;;;5115979;28;20083;-76
2024/01/25 02:40:05;;;;;;;87.15;60.65;;;3.70;99.90;;;;;;5101200;28;20067;-77
2024/01/25 02:42:30;;;;;;;79.07;59.53;;;3.70;99.90;;;;;;5108342;28;20474;-77
2024/01/25 02:44:56;;;;;;;89.65;63.17;;;3.70;99.90;;;;;;5110810;28;20020;-76
2024/01/25 02:47:22;;;;;;;89.40;63.03;;;3.70;99.90;;;;;;5115307;28;20019;-76
2024/01/25 02:49:47;;;;;;;87.95;63.78;;;3.70;99.90;;;;;;5115225;28;20054;-76
2024/01/25 02:52:13;;;;;;;87.28;62.53;;;3.70;99.90;;;;;;5115704;28;20023;-77
2024/01/25 02:54:39;;;;;;;86.97;63.53;;;3.70;99.90;;;;;;5115252;28;20055;-76
2024/01/25 02:57:05;;;;;;;84.65;61.80;;;3.70;99.90;;;;;;5122161;27;20016;-76
2024/01/25 02:59:31;;;;;;;88.30;61.67;;;3.70;99.90;;;;;;5115456;28;20008;-76
2024/01/25 03:01:57;;;;;;;81.28;61.65;;;3.70;99.90;;;;;;5115446;28;20114;-76
2024/01/25 03:04:23;;;;;;;82.28;61.22;;;3.70;99.90;;;;;;5115645;28;20024;-76
2024/01/25 03:06:49;;;;;;;85.57;62.17;;;3.70;99.90;;;;;;5115056;28;20031;-76
2024/01/25 03:09:15;;;;;;;86.85;61.63;;;3.70;99.90;;;;;;5115204;28;20027;-76
2024/01/25 03:11:40;;;;;;;87.25;60.75;;;3.70;99.90;;;;;;5115175;28;20428;-77
2024/01/25 03:14:06;;;;;;;87.28;61.40;;;3.70;99.90;;;;;;5114865;28;20032;-76
2024/01/25 03:16:32;;;;;;;92.88;62.55;;;3.70;99.90;;;;;;5114949;28;20011;-77
2024/01/25 03:18:58;;;;;;;84.22;63.28;;;3.70;99.60;;;;;;5100448;28;20035;-76
2024/01/25 03:21:23;;;;;;;85.30;60.95;;;3.70;99.80;;;;;;5096331;28;20498;-77
2024/01/25 03:23:49;;;;;;;83.00;61.13;;;3.70;99.90;;;;;;5115208;28;20103;-76
2024/01/25 03:26:15;;;;;;;87.10;61.70;;;3.70;99.90;;;;;;5115711;27;20030;-77
2024/01/25 03:28:41;;;;;;;89.35;62.83;;;3.70;99.90;;;;;;5115099;28;20030;-76
2024/01/25 03:31:07;;;;;;;86.88;62.20;;;3.70;99.70;;;;;;5109998;28;20081;-76
2024/01/25 03:33:32;;;;;;;87.13;63.38;;;3.80;98.80;;;;;;5114865;28;20030;-76
2024/01/25 03:36:05;;;;;;;89.10;63.53;;;3.80;97.50;;;;;;5102355;28;20383;-76
2024/01/25 03:38:31;;;;;;;87.30;62.47;;;3.80;96.80;;;;;;5114965;28;20046;-76
2024/01/25 03:40:58;;;;;;;86.18;61.83;;;3.80;96.10;;;;;;5076163;28;20036;-77
2024/01/25 03:43:25;;;;;;;88.07;64.13;;;3.80;96.60;;;;;;5105650;28;20107;-76
2024/01/25 03:45:51;;;;;;;90.30;64.65;;;3.80;97.50;;;;;;5094905;28;20082;-76
2024/01/25 03:48:17;;;;;;;88.32;64.68;;;3.80;96.80;;;;;;5114210;27;20399;-76
2024/01/25 03:50:43;;;;;;;88.65;63.58;;;3.80;97.10;;;;;;5094496;28;20028;-77
2024/01/25 03:53:09;;;;;;;85.13;63.83;;;3.80;97.80;;;;;;5094507;28;20062;-77
2024/01/25 03:55:34;;;;;;;87.45;63.35;;;3.80;96.80;;;;;;5087876;28;20029;-76
2024/01/25 03:58:00;;;;;;;87.90;64.35;;;3.80;97.20;;;;;;5075958;28;20024;-76
2024/01/25 04:00:26;;;;;;;92.13;64.25;;;3.80;96.60;;;;;;5094213;28;20057;-77
2024/01/25 04:02:51;;;;;;;91.35;65.32;;;3.80;96.90;;;;;;5094117;28;20016;-76
2024/01/25 04:05:17;;;;;;;92.10;67.22;;;3.80;97.70;;;;;;5094527;28;20025;-77
2024/01/25 04:07:43;;;;;;;87.47;64.95;;;3.80;97.70;;;;;;5094075;28;20020;-76
2024/01/25 04:10:09;;;;;;;89.75;66.35;;;3.80;98.10;;;;;;5093891;28;20028;-77
2024/01/25 04:12:35;;;;;;;92.10;66.40;;;3.80;97.20;;;;;;5075938;28;20117;-77
2024/01/25 04:15:01;;;;;;;89.50;66.70;;;3.80;96.10;;;;;;5076372;28;20028;-77
2024/01/25 04:17:26;;;;;;;96.68;67.40;;;3.80;96.00;;;;;;5094409;28;20020;-77
2024/01/25 04:19:52;;;;;;;92.18;68.05;;;3.80;95.10;;;;;;5094276;28;20107;-76
2024/01/25 04:22:18;;;;;;;98.07;69.95;;;3.90;94.40;;;;;;5093674;28;20046;-77
2024/01/25 04:24:43;;;;;;;87.75;65.85;;;3.90;93.90;;;;;;5093887;28;20198;-77
2024/01/25 04:27:10;;;;;;;85.60;66.32;;;3.90;93.60;;;;;;5093666;28;20035;-76
2024/01/25 04:29:40;;;;;;;91.15;67.65;;;3.90;93.10;;;;;;5075317;28;20023;-77
2024/01/25 04:32:06;;;;;;;93.35;67.63;;;3.90;92.20;;;;;;5094268;28;20032;-76
2024/01/25 04:34:31;;;;;;;88.57;66.38;;;3.90;92.30;;;;;;5072829;28;20032;-76
2024/01/25 04:36:57;;;;;;;90.30;68.50;;;4.00;91.00;;;;;;5072756;28;20081;-77
2024/01/25 04:39:23;;;;;;;89.50;68.70;;;4.00;91.50;;;;;;5098796;28;20414;-77
2024/01/25 04:41:48;;;;;;;87.35;63.92;;;3.90;91.90;;;;;;5104316;28;20106;-77
2024/01/25 04:44:14;;;;;;;93.75;68.60;;;3.90;91.90;;;;;;5113799;28;20497;-76
2024/01/25 04:46:42;;;;;;;92.25;69.93;;;3.90;92.10;;;;;;5095585;28;20020;-76
2024/01/25 04:49:07;;;;;;;101.57;68.85;;;3.90;92.80;;;;;;5106577;28;20053;-76
2024/01/25 04:51:33;;;;;;;90.18;65.97;;;3.90;92.60;;;;;;5113659;28;20486;-76
2024/01/25 04:53:59;;;;;;;88.85;67.88;;;3.90;92.50;;;;;;5113925;28;20042;-76
2024/01/25 04:56:25;;;;;;;88.70;65.68;;;3.80;93.70;;;;;;5123674;27;20031;-76
2024/01/25 04:58:51;;;;;;;93.28;68.15;;;3.80;94.50;;;;;;5116079;27;20020;-76
2024/01/25 05:01:16;;;;;;;91.25;68.57;;;3.80;93.80;;;;;;5113452;28;20016;-76
2024/01/25 05:03:42;;;;;;;90.95;68.13;;;3.80;92.70;;;;;;5113268;28;20030;-76
2024/01/25 05:06:08;;;;;;;90.55;69.03;;;3.80;93.20;;;;;;5110753;28;20055;-76
2024/01/25 05:08:34;;;;;;;92.75;68.85;;;3.80;93.20;;;;;;5113270;28;20081;-77
2024/01/25 05:11:00;;;;;;;95.60;69.28;;;3.80;94.00;;;;;;5112909;28;20729;-77
2024/01/25 05:13:25;;;;;;;88.43;68.00;;;3.80;93.10;;;;;;5112888;28;20076;-77
2024/01/25 05:15:51;;;;;;;97.63;68.22;;;3.70;93.90;;;;;;5113230;28;20098;-77
2024/01/25 05:18:17;;;;;;;96.30;68.80;;;3.70;94.30;;;;;;5113040;28;20463;-77
2024/01/25 05:20:43;;;;;;;88.72;68.35;;;3.70;94.50;;;;;;5111060;28;20051;-76
2024/01/25 05:23:08;;;;;;;93.72;68.18;;;3.70;93.80;;;;;;5106858;28;20020;-77
2024/01/25 05:25:34;;;;;;;96.45;68.85;;;3.70;94.20;;;;;;5109218;28;20019;-77
2024/01/25 05:28:00;;;;;;;93.63;69.10;;;3.70;94.60;;;;;;5112869;28;20027;-76
2024/01/25 05:30:26;;;;;;;89.75;67.65;;;3.70;95.10;;;;;;5112772;28;20292;-77
2024/01/25 05:32:54;;;;;;;86.03;67.13;;;3.70;94.90;;;;;;5112547;28;20032;-76
2024/01/25 05:35:20;;;;;;;93.28;67.40;;;3.70;95.90;;;;;;5083333;28;20023;-76
2024/01/25 05:37:45;;;;;;;85.93;65.32;;;3.70;96.00;;;;;;5112692;28;20538;-77
2024/01/25 05:40:12;;;;;;;90.60;65.38;;;3.70;96.10;;;;;;5112186;28;20062;-76
2024/01/25 05:42:38;;;;;;;89.28;67.00;;;3.60;95.40;;;;;;5094446;28;20028;-77
2024/01/25 05:45:04;;;;;;;89.35;67.43;;;3.60;96.00;;;;;;5094105;28;20031;-76
2024/01/25 05:47:30;;;;;;;94.68;66.57;;;3.60;96.00;;;;;;5112256;28;20475;-76
2024/01/25 05:49:56;;;;;;;90.15;67.32;;;3.60;96.20;;;;;;5115696;28;20031;-77
2024/01/25 05:52:23;;;;;;;90.38;68.13;;;3.60;97.10;;;;;;5106736;28;20100;-76
2024/01/25 05:54:52;;;;;;;88.55;67.47;;;3.60;97.50;;;;;;5113479;28;20020;-77
2024/01/25 05:57:19;;;;;;;90.13;65.50;;;3.60;97.60;;;;;;5116080;28;20030;-76
2024/01/25 05:59:44;;;;;;;143.82;95.30;;;3.60;97.80;;;;;;5132881;27;20498;-77
2024/01/25 06:02:10;;;;;;;94.85;67.70;;;3.60;98.10;;;;;;5116540;28;20016;-76
2024/01/25 06:04:37;;;;;;;90.57;67.22;;;3.60;97.20;;;;;;5130172;27;20024;-76
2024/01/25 06:07:03;;;;;;;89.53;66.40;;;3.60;97.10;;;;;;5078745;28;20024;-77
2024/01/25 06:09:29;;;;;;;91.35;63.75;;;3.60;97.50;;;;;;5078858;28;20024;-76
2024/01/25 06:11:54;;;;;;;88.97;65.65;;;3.60;97.80;;;;;;5100733;28;20478;-76
2024/01/25 06:14:21;;;;;;;82.53;62.08;;;3.60;97.70;;;;;;5117348;28;20471;-77
2024/01/25 06:16:47;;;;;;;91.20;65.10;;;3.60;98.70;;;;;;5116797;28;20497;-76
2024/01/25 06:19:13;;;;;;;83.60;63.22;;;3.60;98.20;;;;;;5098491;28;20641;-76
2024/01/25 06:21:39;;;;;;;85.18;65.50;;;3.60;98.50;;;;;;5098549;28;20024;-76
2024/01/25 06:24:07;;;;;;;90.00;65.45;;;3.50;99.60;;;;;;5116478;28;20429;-76
2024/01/25 06:26:33;;;;;;;87.60;65.38;;;3.50;99.90;;;;;;5098326;28;20114;-76
2024/01/25 06:28:59;;;;;;;82.57;61.33;;;3.50;99.90;;;;;;5116423;28;20110;-76
2024/01/25 06:31:25;;;;;;;86.70;63.90;;;3.50;99.90;;;;;;5097835;28;20020;-76
2024/01/25 06:33:54;;;;;;;85.05;65.20;;;3.60;99.90;;;;;;5097605;28;20065;-76
2024/01/25 06:36:20;;;;;;;88.00;64.63;;;3.60;98.90;;;;;;5116428;28;20034;-76
2024/01/25 06:38:45;;;;;;;84.75;63.70;;;3.60;98.90;;;;;;5098046;28;20387;-77
2024/01/25 06:41:11;;;;;;;81.97;63.55;;;3.60;98.60;;;;;;5116321;28;20054;-76
2024/01/25 06:43:37;;;;;;;83.03;64.05;;;3.50;99.70;;;;;;5132321;27;20038;-77
2024/01/25 06:46:03;;;;;;;88.85;64.65;;;3.50;99.90;;;;;;5116668;28;20110;-76
2024/01/25 06:48:29;;;;;;;87.50;63.92;;;3.50;99.90;;;;;;5116517;28;20417;-77
2024/01/25 06:50:54;;;;;;;84.60;63.10;;;3.50;99.90;;;;;;5116471;28;20106;-76
2024/01/25 06:53:21;;;;;;;85.88;62.05;;;3.50;99.90;;;;;;5115929;28;20110;-76
2024/01/25 06:55:47;;;;;;;80.28;61.33;;;3.50;99.90;;;;;;5114334;28;20024;-77
2024/01/25 06:58:13;;;;;;;89.68;65.03;;;3.50;99.90;;;;;;5096482;28;20379;-76
2024/01/25 07:00:39;;;;;;;84.18;64.07;;;3.50;99.90;;;;;;5111388;28;20481;-73
2024/01/25 07:03:08;;;;;;;88.15;64.78;;;3.50;99.90;;;;;;5093189;28;20387;-73
2024/01/25 07:05:35;;;;;;;89.53;66.07;;;3.60;99.90;;;;;;5111921;28;20072;-73
2024/01/25 07:08:01;;;;;;;85.40;63.90;;;3.60;99.90;;;;;;5111815;28;20250;-73
2024/01/25 07:10:27;;;;;;;88.18;66.10;;;3.60;99.90;;;;;;5108655;28;20018;-73
2024/01/25 07:12:53;;;;;;;90.28;65.43;;;3.60;99.90;;;;;;5112536;28;20087;-73
2024/01/25 07:15:19;;;;;;;86.95;64.43;;;3.50;99.90;;;;;;5112529;28;20019;-73
2024/01/25 07:17:45;;;;;;;85.82;64.55;;;3.60;99.90;;;;;;5111862;28;20112;-73
2024/01/25 07:20:12;;;;;;;82.97;61.97;;;3.60;99.90;;;;;;5112294;28;20498;-73
2024/01/25 07:22:37;;;;;;;88.25;66.45;;;3.60;99.90;;;;;;5094337;28;20015;-73
2024/01/25 07:25:04;;;;;;;89.78;65.78;;;3.60;99.90;;;;;;5112491;28;20513;-73
2024/01/25 07:27:30;;;;;;;86.18;64.68;;;3.60;99.90;;;;;;5093856;28;20548;-73
2024/01/25 07:29:55;;;;;;;90.72;67.70;;;3.60;99.90;;;;;;5094867;28;20110;-73
2024/01/25 07:32:21;;;;;;;84.35;62.67;;;3.60;99.90;;;;;;5090398;28;20044;-73
2024/01/25 07:34:47;;;;;;;90.57;66.00;;;3.60;99.90;;;;;;5111891;28;20019;-72
2024/01/25 07:37:13;;;;;;;88.13;65.20;;;3.70;99.90;;;;;;5113136;28;20058;-73
2024/01/25 07:39:39;;;;;;;86.57;64.32;;;3.70;99.90;;;;;;5111869;28;20055;-73
2024/01/25 07:42:05;;;;;;;90.13;64.07;;;3.70;99.90;;;;;;5128745;27;20015;-72
2024/01/25 07:44:30;;;;;;;88.00;63.92;;;3.70;99.90;;;;;;5094648;28;20471;-73
2024/01/25 07:46:56;;;;;;;81.25;62.45;;;3.80;99.90;;;;;;5093960;28;20356;-73
2024/01/25 07:49:22;;;;;;;79.05;60.38;;;3.80;99.90;;;;;;5109074;28;20024;-73
2024/01/25 07:51:47;;;;;;;91.53;66.95;;;3.80;99.90;;;;;;5094487;28;20035;-73
2024/01/25 07:54:14;;;;;;;88.88;66.90;;;3.80;99.90;;;;;;5112694;28;20031;-73
2024/01/25 07:56:40;;;;;;;87.15;64.35;;;3.90;99.90;;;;;;5112629;28;20548;-73
2024/01/25 07:59:05;;;;;;;85.30;65.22;;;3.90;99.90;;;;;;5112699;28;20015;-73
2024/01/25 08:01:31;;;;;;;89.20;63.83;;;3.90;99.90;;;;;;5112682;28;20024;-73
2024/01/25 08:03:58;;;;;;;90.30;65.47;;;4.00;99.90;;;;;;5094145;28;20112;-74
2024/01/25 08:06:23;;;;;;;93.65;64.57;;;4.10;99.90;;;;;;5111082;28;20015;-73
2024/01/25 08:08:49;;;;;;;92.03;65.05;;;4.10;99.90;;;;;;5091968;28;20032;-72
2024/01/25 08:11:18;;;;;;;86.43;60.92;;;4.10;99.90;;;;;;5112373;28;20493;-73
2024/01/25 08:13:44;;;;;;;90.03;62.88;;;4.20;99.90;;;;;;5111871;28;20020;-73
2024/01/25 08:16:13;;;;;;;85.18;62.55;;;4.20;99.90;;;;;;5112441;28;20371;-73
2024/01/25 08:18:39;;;;;;;87.35;63.95;;;4.30;99.90;;;;;;5093935;28;20038;-73
2024/01/25 08:21:05;;;;;;;83.70;59.97;;;4.30;99.90;;;;;;5093673;28;20015;-73
2024/01/25 08:23:31;;;;;;;83.45;63.53;;;4.40;99.90;;;;;;5112543;28;20027;-74
2024/01/25 08:25:57;;;;;;;90.35;63.85;;;4.40;99.80;;;;;;5111609;28;20102;-73
2024/01/25 08:28:23;;;;;;;85.47;64.45;;;4.40;99.90;;;;;;5110866;28;20057;-73
2024/01/25 08:30:49;;;;;;;84.90;64.78;;;4.50;99.90;;;;;;5126383;27;20563;-73
2024/01/25 08:33:15;;;;;;;90.82;63.35;;;4.60;99.90;;;;;;5101514;28;20038;-73
2024/01/25 08:35:41;;;;;;;87.65;64.47;;;4.70;99.70;;;;;;5123961;27;20467;-74
2024/01/25 08:38:07;;;;;;;86.00;64.32;;;4.80;99.90;;;;;;5105998;28;20024;-73
2024/01/25 08:40:33;;;;;;;86.68;64.10;;;4.80;99.90;;;;;;5124854;27;20067;-73
2024/01/25 08:42:59;;;;;;;84.03;61.28;;;4.90;98.80;;;;;;5125880;27;20089;-73
2024/01/25 08:45:25;;;;;;;80.07;61.15;;;4.90;96.40;;;;;;5127889;27;20032;-73
2024/01/25 08:47:52;;;;;;;83.47;61.90;;;5.10;97.20;;;;;;5093706;28;20039;-73
2024/01/25 08:50:18;;;;;;;87.60;61.13;;;5.10;91.50;;;;;;5093377;28;20073;-74
2024/01/25 08:52:43;;;;;;;92.50;68.63;;;5.20;90.30;;;;;;5093404;28;20031;-73
2024/01/25 08:55:09;;;;;;;88.47;63.88;;;5.30;92.50;;;;;;5111738;28;20023;-73
2024/01/25 08:57:35;;;;;;;93.88;66.70;;;5.40;92.60;;;;;;5111772;28;20015;-73
2024/01/25 09:00:02;;;;;;;93.80;67.60;;;5.40;99.90;;;;;;5111761;28;20390;-74
2024/01/25 09:02:29;;;;;;;89.82;66.07;;;5.50;99.90;;;;;;5093406;28;20062;-73
2024/01/25 09:04:55;;;;;;;88.35;66.43;;;5.50;99.90;;;;;;5093087;28;20019;-73
2024/01/25 09:07:22;;;;;;;98.38;66.65;;;5.50;99.90;;;;;;5093496;28;20102;-73
2024/01/25 09:09:48;;;;;;;92.10;67.03;;;5.60;99.90;;;;;;5126970;27;20096;-73
2024/01/25 09:12:14;;;;;;;90.32;67.60;;;5.60;99.90;;;;;;5111742;28;20028;-73
2024/01/25 09:14:40;;;;;;;94.40;65.40;;;5.60;96.10;;;;;;5111496;28;20061;-74
2024/01/25 09:17:07;;;;;;;91.32;66.78;;;5.60;96.90;;;;;;5111612;28;20031;-73
2024/01/25 09:19:34;;;;;;;84.63;63.55;;;5.70;96.70;;;;;;5110975;28;20027;-73
2024/01/25 09:22:04;;;;;;;86.70;66.60;;;5.70;92.30;;;;;;5111284;28;20050;-73
2024/01/25 09:24:30;;;;;;;87.18;62.67;;;5.80;84.50;;;;;;5091715;28;20039;-74
2024/01/25 09:26:58;;;;;;;94.47;65.95;;;5.70;81.20;;;;;;5125306;27;20032;-74
2024/01/25 09:29:24;;;;;;;82.82;63.15;;;5.70;83.30;;;;;;5091283;28;20015;-73
2024/01/25 09:31:50;;;;;;;81.20;62.38;;;5.80;69.60;;;;;;5111380;28;20031;-73
2024/01/25 09:34:16;;;;;;;86.32;62.03;;;5.90;71.10;;;;;;5120121;28;20030;-73
2024/01/25 09:36:42;;;;;;;85.93;62.25;;;6.00;69.30;;;;;;5112041;28;20487;-73
2024/01/25 09:39:08;;;;;;;95.90;63.80;;;6.00;79.70;;;;;;5123991;28;20089;-73
2024/01/25 09:41:34;;;;;;;90.60;66.53;;;6.00;63.80;;;;;;5104170;28;20102;-74
2024/01/25 09:44:00;;;;;;;88.40;67.00;;;6.00;78.20;;;;;;5111705;28;20028;-73
2024/01/25 09:46:27;;;;;;;84.25;63.03;;;6.00;79.30;;;;;;5111258;28;20042;-74
2024/01/25 09:48:52;;;;;;;85.07;61.58;;;6.10;71.20;;;;;;5091493;28;20023;-73
2024/01/25 09:51:18;;;;;;;89.72;65.43;;;6.10;61.90;;;;;;5110910;28;20073;-73
2024/01/25 09:53:48;;;;;;;82.70;61.55;;;6.20;55.60;;;;;;5109976;28;20028;-73
2024/01/25 09:56:17;;;;;;;88.00;62.97;;;6.30;52.30;;;;;;5126482;28;20043;-73
2024/01/25 09:58:45;;;;;;;83.78;61.72;;;6.30;45.40;;;;;;5092490;28;20364;-73
2024/01/25 10:01:16;;;;;;;98.82;66.25;;;6.40;32.50;;;;;;5111018;28;20064;-73
2024/01/25 10:03:46;;;;;;;83.65;63.70;;;6.50;36.10;;;;;;5110486;28;20027;-73
2024/01/25 10:06:16;;;;;;;91.68;63.28;;;6.60;33.00;;;;;;5110921;28;20321;-73
2024/01/25 10:08:42;;;;;;;85.97;65.32;;;6.60;32.00;;;;;;5108745;28;20035;-74
2024/01/25 10:11:08;;;;;;;90.45;64.18;;;6.70;36.10;;;;;;5092329;28;20020;-73
2024/01/25 10:14:00;;;;;;;85.25;61.58;;;6.70;23.00;;;;;;5110740;28;20034;-73
2024/01/25 10:16:26;;;;;;;97.22;63.10;;;6.90;16.40;;;;;;5107131;28;20055;-73
2024/01/25 10:18:52;;;;;;;89.40;62.95;;;6.90;19.20;;;;;;5110567;28;20095;-73
2024/01/25 10:21:18;;;;;;;84.05;62.08;;;6.90;16.50;;;;;;5091279;28;20554;-73
2024/01/25 10:23:46;;;;;;;87.70;63.00;;;7.10;1.00;;;;;;5110810;28;20278;-73
2024/01/25 10:26:11;;;;;;;88.10;62.10;;;7.20;1.00;;;;;;5110653;28;20024;-73
2024/01/25 10:28:37;;;;;;;87.00;64.57;;;7.30;1.20;;;;;;5091930;28;20029;-73
2024/01/25 10:31:07;;;;;;;85.93;64.45;;;7.40;1.00;;;;;;5110714;28;20410;-74
2024/01/25 10:33:34;;;;;;;89.85;61.00;;;7.40;1.00;;;;;;5092425;28;20027;-73
2024/01/25 10:36:03;;;;;;;87.43;61.05;;;7.60;1.00;;;;;;5095979;28;20467;-73
2024/01/25 10:38:36;;;;;;;86.78;59.35;;;7.60;1.00;;;;;;5114291;28;20501;-73
2024/01/25 10:41:03;;;;;;;83.47;56.15;;;7.60;1.00;;;;;;5110560;27;20036;-73
2024/01/25 10:43:32;;;;;;;71.93;55.05;;;7.80;1.00;;;;;;5092769;28;20019;-73
2024/01/25 10:45:59;;;;;;;77.10;53.67;;;7.90;1.00;;;;;;5091168;28;20020;-73
2024/01/25 10:48:26;;;;;;;71.35;50.03;;;7.80;1.00;;;;;;5093639;28;20052;-73
2024/01/25 10:50:55;;;;;;;75.55;48.35;;;7.80;1.00;;;;;;5109161;28;20515;-73
2024/01/25 10:53:24;;;;;;;66.22;47.38;;;7.80;1.00;;;;;;5092161;28;20121;-74
2024/01/25 10:55:51;;;;;;;64.55;48.15;;;8.00;1.00;;;;;;5093620;28;20024;-73
2024/01/25 10:58:17;;;;;;;69.13;45.67;;;8.00;1.00;;;;;;5093285;28;20012;-74
2024/01/25 11:01:01;;;;;;;63.78;43.17;;;8.10;1.00;;;;;;5073382;28;20062;-73
2024/01/25 11:03:33;;;;;;;65.03;43.97;;;8.30;1.00;;;;;;5092167;28;20164;-73
2024/01/25 11:06:09;;;;;;;74.88;43.97;;;8.20;1.00;;;;;;5090524;28;20020;-73
2024/01/25 11:08:38;;;;;;;63.75;43.53;;;8.30;1.00;;;;;;5108499;28;20111;-73
2024/01/25 11:11:07;;;;;;;58.58;42.40;;;8.30;1.00;;;;;;5107714;28;20479;-73
2024/01/25 11:13:33;;;;;;;62.33;41.55;;;8.40;1.00;;;;;;5093255;28;20016;-73
2024/01/25 11:15:58;;;;;;;57.50;40.53;;;8.40;1.00;;;;;;5092794;28;20069;-74
2024/01/25 11:18:27;;;;;;;57.97;38.95;;;8.40;1.00;;;;;;5074481;28;20012;-73
2024/01/25 11:20:53;;;;;;;59.63;40.13;;;8.40;1.00;;;;;;5074891;28;20447;-73
2024/01/25 11:23:19;;;;;;;49.55;38.58;;;8.60;1.00;;;;;;5093348;28;20074;-73
2024/01/25 11:25:47;;;;;;;55.88;39.17;;;8.60;1.00;;;;;;5074652;28;20567;-73
2024/01/25 11:28:16;;;;;;;51.85;36.15;;;8.60;1.00;;;;;;5108574;28;20103;-73
2024/01/25 11:30:42;;;;;;;62.13;37.22;;;8.70;99.90;;;;;;5091443;28;20073;-73
2024/01/25 11:33:08;;;;;;;49.72;36.92;;;8.80;99.90;;;;;;5074283;28;20023;-73
2024/01/25 11:35:34;;;;;;;51.38;35.15;;;8.80;1.00;;;;;;5092475;28;20008;-73
2024/01/25 11:38:01;;;;;;;64.10;37.75;;;8.80;1.00;;;;;;5092858;28;20022;-73
2024/01/25 11:40:28;;;;;;;54.25;36.40;;;8.80;1.00;;;;;;5092083;28;20055;-73
2024/01/25 11:42:54;;;;;;;50.38;36.47;;;8.80;99.90;;;;;;5102958;28;20394;-73
2024/01/25 11:45:19;;;;;;;53.75;36.88;;;8.80;1.00;;;;;;5104585;28;20023;-74
2024/01/25 11:47:45;;;;;;;50.22;34.67;;;8.90;99.90;;;;;;5104481;28;20016;-73
2024/01/25 11:50:12;;;;;;;49.08;36.03;;;9.00;99.90;;;;;;5102093;28;20378;-73
2024/01/25 11:52:38;;;;;;;52.25;35.72;;;9.00;99.90;;;;;;5099900;28;20040;-73
2024/01/25 11:55:09;;;;;;;46.20;33.55;;;9.00;99.90;;;;;;5104281;28;20051;-73
2024/01/25 11:57:37;;;;;;;48.58;34.97;;;9.00;99.90;;;;;;5104083;28;20023;-73
2024/01/25 12:00:05;;;;;;;51.88;34.80;;;9.00;99.90;;;;;;5099529;28;20025;-74
2024/01/25 12:02:31;;;;;;;49.85;32.95;;;9.10;99.90;;;;;;5103667;28;20479;-73
2024/01/25 12:04:57;;;;;;;45.63;33.85;;;9.10;99.90;;;;;;5104675;28;20483;-73
2024/01/25 12:07:23;;;;;;;48.55;33.00;;;9.10;99.90;;;;;;5103853;28;20019;-73
2024/01/25 12:09:59;;;;;;;50.30;32.63;;;9.10;99.90;;;;;;5103844;28;20019;-73
2024/01/25 12:12:26;;;;;;;49.35;32.83;;;9.30;99.90;;;;;;5102372;28;20016;-73
2024/01/25 12:15:04;;;;;;;45.05;33.15;;;9.30;99.90;;;;;;5104358;28;20020;-74
2024/01/25 12:17:31;;;;;;;52.95;32.30;;;9.30;99.90;;;;;;5102219;28;20118;-73
2024/01/25 12:19:58;;;;;;;47.25;33.20;;;9.40;99.90;;;;;;5102047;28;20463;-73
2024/01/25 12:22:28;;;;;;;56.17;33.20;;;9.40;99.90;;;;;;5102580;28;20024;-73
2024/01/25 12:24:54;;;;;;;54.78;35.28;;;9.50;99.90;;;;;;5103438;28;20492;-73
2024/01/25 12:27:24;;;;;;;44.28;31.67;;;9.60;99.90;;;;;;5099851;28;20251;-73
2024/01/25 12:29:53;;;;;;;46.13;32.58;;;9.60;99.90;;;;;;5100242;28;20123;-73
2024/01/25 12:32:19;;;;;;;46.47;33.28;;;9.60;99.90;;;;;;5105028;28;20038;-73
2024/01/25 12:35:06;;;;;;;47.53;33.88;;;9.60;99.90;;;;;;5103086;28;20027;-73